Niagara University, NY

10:55 AM EDT on June 30, 2015 (GMT -0400)
37th st | | Change Station
CLOSE
Current Station
Personal Weather Station
Location: Niagara Falls, NY
Elevation: 577 ft
Nearby Weather Stations

Elev 577 ft 43.09 °N, 79.02 °W | Updated 58 minutes ago

Overcast
Overcast
66.0 °F
Feels Like 66.0 °F
N
1.1
Wind Variable Wind from NW

Today
High -- | Low -- °F
--% Chance of Precip.
Yesterday
High -- | Low -- °F
Precip. -- in
5:39 AM 8:59 PM
Waxing Gibbous, 97% visible
Pressure 29.82 in
Visibility 7.0 miles
Clouds Overcast 2500 ft
Dew Point 61 °F
Humidity 85%
Rainfall in
Snow Depth Not available.
UV 2 out of 12
Pollen .10 out of 12
Air Quality Not available.
Flu Activity Sporadic
METAR KIAG 301353Z 13005KT 7SM OVC025 18/16 A2982 RMK AO2 SLP097 T01780156

More Conditions Fewer Conditions

Pressure 29.82 in
Visibility 7.0 miles
Clouds Overcast 2500 ft
Dew Point 61 °F
Humidity 85%
Rainfall in
Snow Depth Not available.
UV 2 out of 12
Pollen .10 out of 12
Air Quality Not available.
Flu Activity Sporadic
METAR KIAG 301353Z 13005KT 7SM OVC025 18/16 A2982 RMK AO2 SLP097 T01780156

More Conditions Fewer Conditions

10-Day Weather Forecast

×

Almanac

Astronomy

Jun. 30, 2015 Rise Set
Actual Time
Civil Twilight
Nautical Twilight
Astronomical Twilight
Moon
Length of Visible Light
Length of Day
Tomorrow will be .
, % of the Moon is Illuminated

Today's Extremes

State Highs State Lows

Community

WunderPhotos

Upload Photos

1,834,014 photos uploaded!

WunderBlogs® & News

Nearby

Air Quality

  Air Quality AQ Index Pollutant
Not available.

Snow Depth

Station Depth Elevation

Earthquake Activity

City Distance Mag. Time & Date
Minimum magnitude displayed is 2.5.

Coastal Water Temperatures

Place Temperature

Stations

Nearby Weather Stations

Station Location Temp. Windchill Dew Point Humidity Wind Precip. Elev Updated Type